Time;durP1;ratioP1;P1;durP2;ratioP2;P2;SDS_P1;SDS_P2;PMS_P1;PMS_P2;Temp;Humidity;BMP_temperature;BMP_pressure;BME280_temperature;BME280_humidity;BME280_pressure;Samples;Min_cycle;Max_cycle;Signal;HPM_P1;HPM_P2
2024/01/20 00:00:15;;;;;;;20.83;11.98;;;-1.00;99.90;;;;;;5002453;28;20025;-74
2024/01/20 00:02:43;;;;;;;21.52;12.32;;;-1.00;99.90;;;;;;5000385;28;20030;-77
2024/01/20 00:05:12;;;;;;;22.00;12.20;;;-1.00;99.90;;;;;;5001738;28;20106;-75
2024/01/20 00:08:01;;;;;;;21.85;11.63;;;-1.10;99.90;;;;;;5002014;28;20313;-74
2024/01/20 00:10:32;;;;;;;22.35;13.05;;;-1.00;99.90;;;;;;5003266;28;20065;-75
2024/01/20 00:13:21;;;;;;;22.05;12.13;;;-0.90;99.90;;;;;;5004942;28;20030;-75
2024/01/20 00:16:22;;;;;;;21.75;12.27;;;-1.00;99.90;;;;;;5001891;28;20046;-73
2024/01/20 00:19:19;;;;;;;20.88;11.73;;;-0.90;99.90;;;;;;4926001;29;20277;-74
2024/01/20 00:21:48;;;;;;;24.05;13.45;;;-1.00;99.90;;;;;;4960525;28;20109;-75
2024/01/20 00:24:29;;;;;;;25.77;13.52;;;-0.90;99.90;;;;;;5002812;28;20073;-75
2024/01/20 00:27:13;;;;;;;24.95;13.85;;;-1.00;99.90;;;;;;5002439;28;20034;-76
2024/01/20 00:29:42;;;;;;;22.88;13.32;;;-0.90;99.90;;;;;;5002378;28;20339;-76
2024/01/20 00:32:07;;;;;;;24.95;12.73;;;-0.90;99.90;;;;;;4999625;28;20026;-74
2024/01/20 00:34:54;;;;;;;24.70;13.73;;;-1.00;99.90;;;;;;5000281;28;20256;-73
2024/01/20 00:37:20;;;;;;;20.85;10.77;;;-0.90;99.90;;;;;;5000823;28;20256;-74
2024/01/20 00:40:05;;;;;;;24.35;14.05;;;-0.90;99.90;;;;;;4999241;28;20107;-75
2024/01/20 00:42:40;;;;;;;28.00;14.55;;;-0.90;99.90;;;;;;4999078;28;20097;-74
2024/01/20 00:45:15;;;;;;;24.40;14.20;;;-1.00;99.90;;;;;;5000062;28;20030;-74
2024/01/20 00:47:41;;;;;;;25.70;14.90;;;-1.00;99.90;;;;;;5000440;28;20052;-74
2024/01/20 00:50:21;;;;;;;27.92;14.73;;;-1.00;99.90;;;;;;5004284;28;20027;-75
2024/01/20 00:53:09;;;;;;;27.55;14.55;;;-1.00;99.90;;;;;;5004378;28;20272;-75
2024/01/20 00:55:35;;;;;;;25.58;13.50;;;-1.00;99.90;;;;;;5004421;28;20029;-77
2024/01/20 00:58:16;;;;;;;22.27;13.00;;;-1.00;99.90;;;;;;5005977;28;20022;-75
2024/01/20 01:00:41;;;;;;;25.73;13.70;;;-1.10;99.90;;;;;;5004261;28;20284;-74
2024/01/20 01:03:13;;;;;;;21.10;12.50;;;-1.20;99.90;;;;;;5006027;28;20034;-77
2024/01/20 01:06:02;;;;;;;22.48;12.88;;;-1.30;99.90;;;;;;5003960;28;20396;-76
2024/01/20 01:08:37;;;;;;;24.55;14.05;;;-1.40;99.90;;;;;;5004674;28;20033;-75
2024/01/20 01:11:05;;;;;;;28.23;14.13;;;-1.50;99.90;;;;;;5005962;28;20336;-74
2024/01/20 01:13:37;;;;;;;26.35;14.88;;;-1.60;99.90;;;;;;5005667;28;20034;-74
2024/01/20 01:16:46;;;;;;;24.38;13.95;;;-1.60;99.90;;;;;;5004898;28;20034;-74
2024/01/20 01:19:15;;;;;;;26.70;14.18;;;-1.60;99.90;;;;;;5004236;28;20034;-75
2024/01/20 01:21:57;;;;;;;23.55;13.70;;;-1.60;99.90;;;;;;5004986;28;20080;-74
2024/01/20 01:24:32;;;;;;;28.88;15.57;;;-1.60;99.90;;;;;;5005301;28;20033;-74
2024/01/20 01:27:15;;;;;;;27.58;15.35;;;-1.50;99.90;;;;;;5004551;28;20025;-74
2024/01/20 01:29:41;;;;;;;27.52;15.38;;;-1.50;99.90;;;;;;5004846;28;20035;-75
2024/01/20 01:32:09;;;;;;;29.15;15.88;;;-1.40;99.90;;;;;;5004306;28;20106;-73
2024/01/20 01:34:45;;;;;;;25.75;14.95;;;-1.40;99.90;;;;;;5005097;28;20033;-75
2024/01/20 01:37:11;;;;;;;28.17;15.43;;;-1.40;99.90;;;;;;5005319;28;20169;-75
2024/01/20 01:39:42;;;;;;;25.42;15.27;;;-1.40;99.90;;;;;;5004544;28;20030;-74
2024/01/20 01:42:11;;;;;;;28.20;16.13;;;-1.40;99.90;;;;;;4987806;28;20049;-75
2024/01/20 01:45:02;;;;;;;29.10;16.58;;;-1.40;99.90;;;;;;4987799;28;20034;-75
2024/01/20 01:47:33;;;;;;;27.45;15.68;;;-1.30;99.90;;;;;;4966471;28;20380;-75
2024/01/20 01:50:02;;;;;;;28.85;16.83;;;-1.30;99.90;;;;;;4984586;28;20322;-75
2024/01/20 01:52:35;;;;;;;28.25;16.42;;;-1.30;99.90;;;;;;4985232;28;20035;-74
2024/01/20 01:55:13;;;;;;;30.13;16.23;;;-1.30;99.90;;;;;;4984091;28;20022;-75
2024/01/20 01:57:58;;;;;;;33.15;17.73;;;-1.40;99.90;;;;;;4984874;28;20033;-77
2024/01/20 02:00:32;;;;;;;28.35;15.93;;;-1.40;99.90;;;;;;4984976;28;20027;-73
2024/01/20 02:03:01;;;;;;;29.10;15.80;;;-1.40;99.90;;;;;;4984959;28;20102;-76
2024/01/20 02:05:39;;;;;;;30.83;16.90;;;-1.40;99.90;;;;;;4976049;28;20034;-73
2024/01/20 02:08:20;;;;;;;27.55;16.40;;;-1.50;99.90;;;;;;5004283;28;20089;-74
2024/01/20 02:11:22;;;;;;;30.23;16.33;;;-1.50;99.90;;;;;;4990235;28;20034;-74
2024/01/20 02:14:00;;;;;;;28.88;16.40;;;-1.40;99.90;;;;;;5004189;28;20038;-74
2024/01/20 02:16:32;;;;;;;31.98;17.85;;;-1.40;99.90;;;;;;5004778;28;20093;-74
2024/01/20 02:19:15;;;;;;;28.17;16.05;;;-1.40;99.90;;;;;;5004721;28;20026;-72
2024/01/20 02:24:40;;;;;;;28.53;16.37;;;-1.50;99.90;;;;;;4993437;28;20084;-73
2024/01/20 02:27:12;;;;;;;27.17;16.27;;;-1.50;99.90;;;;;;4985172;28;20470;-74
2024/01/20 02:29:46;;;;;;;30.20;16.50;;;-1.50;99.90;;;;;;4984227;28;20031;-73
2024/01/20 02:32:23;;;;;;;27.38;15.65;;;-1.50;99.90;;;;;;4984937;28;20221;-74
2024/01/20 02:34:49;;;;;;;30.75;16.95;;;-1.50;99.90;;;;;;4984320;28;20099;-74
2024/01/20 02:37:18;;;;;;;31.05;16.63;;;-1.50;99.90;;;;;;4984678;28;20237;-73
2024/01/20 02:39:46;;;;;;;28.27;16.23;;;-1.60;99.90;;;;;;4984140;28;20329;-74
2024/01/20 02:42:21;;;;;;;25.92;14.95;;;-1.60;99.90;;;;;;5003079;28;20074;-73
2024/01/20 02:44:50;;;;;;;30.00;17.00;;;-1.60;99.90;;;;;;5003734;28;20053;-73
2024/01/20 02:47:21;;;;;;;31.58;16.83;;;-1.60;99.90;;;;;;5002929;28;20066;-73
2024/01/20 02:49:49;;;;;;;30.42;16.80;;;-1.60;99.90;;;;;;5003805;28;20064;-73
2024/01/20 02:52:21;;;;;;;31.92;17.23;;;-1.60;99.90;;;;;;5002735;28;20117;-72
2024/01/20 02:54:46;;;;;;;28.25;16.27;;;-1.60;99.90;;;;;;5003117;28;20052;-73
2024/01/20 02:57:27;;;;;;;29.77;15.48;;;-1.60;99.90;;;;;;5003610;28;20034;-75
2024/01/20 02:59:53;;;;;;;30.58;16.85;;;-1.60;99.90;;;;;;5002701;28;20034;-73
2024/01/20 03:02:20;;;;;;;27.95;16.08;;;-1.50;99.90;;;;;;5003530;28;20064;-74
2024/01/20 03:04:49;;;;;;;29.90;16.60;;;-1.40;99.90;;;;;;5002108;28;20301;-73
2024/01/20 03:07:31;;;;;;;30.90;16.92;;;-1.50;99.90;;;;;;5002439;28;20053;-74
2024/01/20 03:09:59;;;;;;;32.45;17.10;;;-1.50;99.90;;;;;;4985945;28;20061;-74
2024/01/20 03:12:34;;;;;;;31.63;16.95;;;-1.50;99.90;;;;;;5001737;28;20027;-73
2024/01/20 03:15:15;;;;;;;31.98;17.90;;;-1.50;99.90;;;;;;5001646;28;20313;-74
2024/01/20 03:17:44;;;;;;;31.38;17.00;;;-1.50;99.90;;;;;;5002195;28;20198;-72
2024/01/20 03:20:13;;;;;;;27.88;16.27;;;-1.50;99.90;;;;;;5004171;28;20042;-74
2024/01/20 03:22:54;;;;;;;29.90;17.02;;;-1.50;99.90;;;;;;5001457;28;20097;-74
2024/01/20 03:25:22;;;;;;;;;;;-1.50;99.90;;;;;;5003862;28;20101;-73
2024/01/20 03:27:57;;;;;;;30.00;16.35;;;-1.40;99.90;;;;;;5002457;28;19924;-73
2024/01/20 03:30:29;;;;;;;33.28;18.75;;;-1.50;99.90;;;;;;4991613;28;20312;-76
2024/01/20 03:32:56;;;;;;;32.55;18.42;;;-1.50;99.90;;;;;;5003087;28;20126;-74
2024/01/20 03:35:30;;;;;;;32.35;17.42;;;-1.40;99.90;;;;;;5002578;28;20026;-73
2024/01/20 03:37:59;;;;;;;30.20;16.85;;;-1.40;99.90;;;;;;4984355;28;20037;-73
2024/01/20 03:41:19;;;;;;;34.13;17.98;;;-1.50;99.90;;;;;;5003211;28;20041;-74
2024/01/20 03:43:28;;;;;;;35.53;18.33;;;-1.50;99.90;;;;;;4992453;28;20050;-74
2024/01/20 03:45:55;;;;;;;31.77;17.23;;;-1.40;99.90;;;;;;5000262;28;20328;-74
2024/01/20 03:48:21;;;;;;;34.20;18.17;;;-1.40;99.90;;;;;;5003005;28;20038;-73
2024/01/20 03:50:46;;;;;;;34.65;18.17;;;-1.40;99.90;;;;;;5002687;28;20026;-72
2024/01/20 03:53:21;;;;;;;33.83;18.42;;;-1.30;99.90;;;;;;5002732;28;20025;-73
2024/01/20 03:55:50;;;;;;;32.17;18.48;;;-1.30;99.90;;;;;;4999515;28;20102;-74
2024/01/20 03:58:16;;;;;;;35.53;17.77;;;-1.20;99.90;;;;;;4985542;28;20105;-74
2024/01/20 04:00:45;;;;;;;33.55;17.40;;;-1.30;99.90;;;;;;5002618;28;20029;-73
2024/01/20 04:03:11;;;;;;;31.30;17.05;;;-1.30;99.90;;;;;;4985442;28;20101;-73
2024/01/20 04:05:51;;;;;;;29.83;17.95;;;-1.40;99.90;;;;;;4984639;28;20114;-72
2024/01/20 04:08:17;;;;;;;31.83;17.75;;;-1.40;99.90;;;;;;4984950;28;20081;-75
2024/01/20 04:11:07;;;;;;;31.23;17.17;;;-1.50;99.90;;;;;;5002075;28;20038;-71
2024/01/20 04:13:33;;;;;;;29.45;17.20;;;-1.50;99.90;;;;;;4993869;28;20105;-74
2024/01/20 04:15:59;;;;;;;32.65;16.60;;;-1.70;99.90;;;;;;4985248;28;20030;-72
2024/01/20 04:18:28;;;;;;;34.22;18.35;;;-1.80;99.90;;;;;;5001539;28;20026;-74
2024/01/20 04:20:54;;;;;;;33.10;18.08;;;-1.80;99.90;;;;;;5002321;28;20181;-75
2024/01/20 04:23:28;;;;;;;32.45;18.33;;;-1.80;99.90;;;;;;5002892;28;20042;-72
2024/01/20 04:25:57;;;;;;;33.83;18.38;;;-1.90;99.90;;;;;;5006515;28;20040;-74
2024/01/20 04:28:25;;;;;;;33.78;18.80;;;-2.00;99.90;;;;;;5005823;28;20269;-75
2024/01/20 04:30:54;;;;;;;33.35;17.95;;;-2.00;99.90;;;;;;5004842;28;20018;-74
2024/01/20 04:33:29;;;;;;;34.78;19.40;;;-2.00;99.90;;;;;;5005350;28;20022;-72
2024/01/20 04:35:56;;;;;;;35.63;19.27;;;-2.10;99.90;;;;;;5005975;28;20232;-73
2024/01/20 04:38:32;;;;;;;33.95;18.30;;;-2.10;99.90;;;;;;5004768;28;20216;-73
2024/01/20 04:40:58;;;;;;;31.15;17.58;;;-2.10;99.90;;;;;;4989120;28;20022;-73
2024/01/20 04:43:29;;;;;;;34.38;19.50;;;-2.10;99.90;;;;;;4989060;28;20098;-74
2024/01/20 04:46:07;;;;;;;35.42;19.95;;;-2.10;99.90;;;;;;5004625;28;20022;-74
2024/01/20 04:48:36;;;;;;;36.83;19.42;;;-2.20;99.90;;;;;;4988378;28;20035;-74
2024/01/20 04:51:06;;;;;;;36.20;20.17;;;-2.20;99.90;;;;;;5005073;28;20037;-73
2024/01/20 04:53:31;;;;;;;39.53;20.73;;;-2.20;99.90;;;;;;5005500;28;20097;-74
2024/01/20 04:56:05;;;;;;;34.25;18.75;;;-2.20;99.90;;;;;;5006065;28;20030;-76
2024/01/20 04:58:42;;;;;;;34.40;19.10;;;-2.20;99.90;;;;;;5005659;28;20333;-74
2024/01/20 05:01:23;;;;;;;36.47;19.85;;;-2.20;99.90;;;;;;5005943;28;20244;-72
2024/01/20 05:03:49;;;;;;;35.50;18.83;;;-2.10;99.90;;;;;;4971154;28;20030;-73
2024/01/20 05:06:15;;;;;;;40.28;20.10;;;-2.10;99.90;;;;;;5005696;28;20101;-75
2024/01/20 05:08:43;;;;;;;36.65;19.45;;;-2.10;99.90;;;;;;5005210;28;20043;-75
2024/01/20 05:11:15;;;;;;;39.05;19.35;;;-2.10;99.90;;;;;;5006089;28;20371;-74
2024/01/20 05:13:41;;;;;;;37.25;19.27;;;-2.00;99.90;;;;;;4988242;28;20026;-75
2024/01/20 05:16:10;;;;;;;35.20;19.25;;;-2.10;99.90;;;;;;5005779;28;20225;-74
2024/01/20 05:18:42;;;;;;;37.50;19.48;;;-2.10;99.90;;;;;;5004291;28;20019;-72
2024/01/20 05:21:15;;;;;;;35.03;19.20;;;-2.10;99.90;;;;;;5004887;28;20030;-73
2024/01/20 05:23:57;;;;;;;35.47;20.00;;;-2.00;99.90;;;;;;4986790;28;20034;-73
2024/01/20 05:26:31;;;;;;;37.88;19.95;;;-2.00;99.90;;;;;;4988161;28;20038;-74
2024/01/20 05:29:00;;;;;;;35.17;20.02;;;-2.10;99.90;;;;;;4972631;28;20081;-74
2024/01/20 05:31:31;;;;;;;37.60;19.60;;;-2.10;99.90;;;;;;5005448;28;20050;-73
2024/01/20 05:33:58;;;;;;;35.42;19.17;;;-2.00;99.90;;;;;;4971830;28;20030;-74
2024/01/20 05:36:25;;;;;;;37.30;20.48;;;-2.00;99.90;;;;;;4987058;28;20030;-74
2024/01/20 05:38:50;;;;;;;38.80;20.75;;;-2.10;99.90;;;;;;5004272;28;20325;-75
2024/01/20 05:41:26;;;;;;;38.55;19.30;;;-2.10;99.90;;;;;;5005106;28;20481;-75
2024/01/20 05:43:52;;;;;;;43.25;19.92;;;-2.10;99.90;;;;;;5005015;28;20050;-72
2024/01/20 05:46:23;;;;;;;41.05;20.55;;;-2.10;99.90;;;;;;5005177;28;20141;-73
2024/01/20 05:48:51;;;;;;;39.45;20.20;;;-2.10;99.90;;;;;;5004512;28;20513;-74
2024/01/20 05:51:17;;;;;;;40.05;21.00;;;-2.20;99.90;;;;;;5005129;28;20077;-75
2024/01/20 05:54:09;;;;;;;42.78;21.52;;;-2.20;99.90;;;;;;5004588;28;20265;-74
2024/01/20 05:56:40;;;;;;;37.13;19.88;;;-2.20;99.90;;;;;;5002127;28;20097;-74
2024/01/20 05:59:12;;;;;;;44.72;21.30;;;-2.20;99.90;;;;;;5004375;28;20164;-75
2024/01/20 06:01:41;;;;;;;42.08;21.48;;;-2.30;99.90;;;;;;5004834;28;20045;-74
2024/01/20 06:04:10;;;;;;;40.08;21.77;;;-2.30;99.90;;;;;;5004799;28;20097;-75
2024/01/20 06:06:42;;;;;;;40.83;21.30;;;-2.40;99.90;;;;;;4987195;28;20090;-75
2024/01/20 06:09:12;;;;;;;44.17;21.33;;;-2.50;99.90;;;;;;4987454;28;20106;-72
2024/01/20 06:11:39;;;;;;;41.60;22.15;;;-2.50;99.90;;;;;;4987112;28;20141;-73
2024/01/20 06:14:12;;;;;;;40.22;20.77;;;-2.40;99.90;;;;;;5003748;28;20041;-74
2024/01/20 06:16:41;;;;;;;39.63;19.75;;;-2.40;99.90;;;;;;4982740;28;20038;-73
2024/01/20 06:19:09;;;;;;;33.63;19.23;;;-2.40;99.90;;;;;;4987629;28;20037;-75
2024/01/20 06:21:36;;;;;;;34.17;19.25;;;-2.50;99.90;;;;;;5003427;28;20029;-73
2024/01/20 06:24:05;;;;;;;39.95;20.67;;;-2.50;99.90;;;;;;4987384;28;20081;-78
2024/01/20 06:26:35;;;;;;;39.63;21.52;;;-2.60;99.90;;;;;;4986853;28;20032;-72
2024/01/20 06:29:12;;;;;;;39.45;20.90;;;-2.60;99.90;;;;;;5003906;28;20030;-73
2024/01/20 06:31:50;;;;;;;39.72;20.25;;;-2.60;99.90;;;;;;5003864;28;20037;-72
2024/01/20 06:34:15;;;;;;;;;;;-2.60;99.90;;;;;;5004792;28;20129;-75
2024/01/20 06:36:47;;;;;;;37.25;19.70;;;-2.60;99.90;;;;;;5003279;28;20104;-74
2024/01/20 06:39:13;;;;;;;38.33;19.83;;;-2.60;99.90;;;;;;5004421;28;20077;-73
2024/01/20 06:41:40;;;;;;;38.90;20.35;;;-2.60;99.90;;;;;;5002569;28;20030;-73
2024/01/20 06:44:42;;;;;;;45.25;20.70;;;-2.50;99.90;;;;;;4986542;28;20213;-74
2024/01/20 06:47:23;;;;;;;43.35;20.58;;;-2.50;99.90;;;;;;4969049;28;20036;-74
2024/01/20 06:49:53;;;;;;;39.30;20.20;;;-2.50;99.90;;;;;;5003304;28;20049;-75
2024/01/20 06:52:36;;;;;;;36.90;19.75;;;-2.60;99.90;;;;;;5003934;28;20097;-75
2024/01/20 06:55:05;;;;;;;40.85;20.92;;;-2.60;99.90;;;;;;5003123;28;20252;-75
2024/01/20 06:57:44;;;;;;;;;;;;;;;;;;;;;
2024/01/20 07:00:38;;;;;;;37.08;19.83;;;-2.60;99.90;;;;;;5003232;28;20351;-73
2024/01/20 07:03:04;;;;;;;39.50;20.55;;;-2.60;99.90;;;;;;5003173;28;20022;-74
2024/01/20 07:05:32;;;;;;;35.03;19.05;;;-2.60;99.90;;;;;;5002286;28;20380;-74
2024/01/20 07:08:11;;;;;;;38.22;19.75;;;-2.60;99.90;;;;;;5002111;28;20034;-74
2024/01/20 07:10:38;;;;;;;39.88;20.95;;;-2.70;99.90;;;;;;4986069;28;20209;-72
2024/01/20 07:13:07;;;;;;;30.52;15.70;;;-2.60;99.90;;;;;;4986469;28;20026;-74
2024/01/20 07:15:36;;;;;;;39.30;21.33;;;-2.50;99.90;;;;;;5002715;28;20014;-74
2024/01/20 07:18:07;;;;;;;40.03;20.58;;;-2.50;99.90;;;;;;5002279;28;20030;-73
2024/01/20 07:20:46;;;;;;;37.60;19.13;;;-2.40;99.90;;;;;;5001862;28;20344;-74
2024/01/20 07:23:22;;;;;;;32.08;19.38;;;-2.50;99.90;;;;;;5002107;28;20101;-75
2024/01/20 07:26:05;;;;;;;34.53;18.42;;;-2.50;99.90;;;;;;4987304;28;20061;-75
2024/01/20 07:28:43;;;;;;;34.70;18.98;;;-2.50;99.90;;;;;;5001286;28;20042;-75
2024/01/20 07:31:13;;;;;;;38.97;19.70;;;-2.50;99.90;;;;;;4983680;28;20018;-75
2024/01/20 07:33:41;;;;;;;36.75;19.75;;;-2.60;99.90;;;;;;5001666;28;20018;-74
2024/01/20 07:36:07;;;;;;;37.17;20.08;;;-2.50;99.90;;;;;;4969616;28;20209;-75
2024/01/20 07:41:32;;;;;;;34.50;19.30;;;-2.50;99.90;;;;;;4961800;29;20062;-74
2024/01/20 07:44:11;;;;;;;33.42;17.63;;;-2.50;99.90;;;;;;4983480;28;20264;-75
2024/01/20 07:46:37;;;;;;;37.25;19.20;;;-2.40;99.90;;;;;;5002249;28;20038;-72
2024/01/20 07:49:12;;;;;;;35.38;18.90;;;-2.40;99.90;;;;;;5001867;28;20094;-73
2024/01/20 07:51:38;;;;;;;35.17;18.38;;;-2.40;99.90;;;;;;5001980;28;20033;-73
2024/01/20 07:54:21;;;;;;;39.63;19.85;;;-2.50;99.90;;;;;;5001439;28;20094;-75
2024/01/20 07:56:48;;;;;;;39.30;19.52;;;-2.50;99.90;;;;;;5002488;28;20049;-73
2024/01/20 07:59:16;;;;;;;37.10;19.75;;;-2.30;99.90;;;;;;5001299;28;20030;-73
2024/01/20 08:02:03;;;;;;;37.03;18.52;;;-2.40;99.90;;;;;;5001515;28;20023;-74
2024/01/20 08:04:29;;;;;;;37.53;20.67;;;-2.50;99.90;;;;;;4985379;28;20093;-75
2024/01/20 08:07:04;;;;;;;35.20;18.87;;;-2.60;99.90;;;;;;5001627;28;20037;-72
2024/01/20 08:10:02;;;;;;;36.47;18.60;;;-2.60;99.90;;;;;;5002052;28;20034;-76
2024/01/20 08:12:56;;;;;;;32.90;18.88;;;-2.50;99.90;;;;;;4988697;28;20359;-74
2024/01/20 08:15:31;;;;;;;34.42;18.85;;;-2.60;99.90;;;;;;5001835;28;20025;-74
2024/01/20 08:18:04;;;;;;;39.50;20.98;;;-2.60;99.90;;;;;;4985699;28;20030;-74
2024/01/20 08:20:33;;;;;;;36.00;18.98;;;-2.50;99.90;;;;;;5002333;28;20086;-74
2024/01/20 08:23:03;;;;;;;36.85;19.17;;;-2.50;99.90;;;;;;5001589;28;20205;-74
2024/01/20 08:25:30;;;;;;;39.45;20.48;;;-2.60;99.90;;;;;;4969080;28;20025;-76
2024/01/20 08:27:59;;;;;;;40.33;21.38;;;-2.60;99.90;;;;;;5001937;28;20030;-73
2024/01/20 08:30:24;;;;;;;43.58;22.13;;;-2.50;99.90;;;;;;5002512;28;20026;-74
2024/01/20 08:33:14;;;;;;;39.75;20.48;;;-2.30;99.90;;;;;;4984460;28;20328;-75
2024/01/20 08:35:45;;;;;;;39.65;21.02;;;-2.20;99.90;;;;;;5001631;28;20041;-75
2024/01/20 08:38:24;;;;;;;37.03;20.85;;;-2.30;99.90;;;;;;5002321;28;20057;-74
2024/01/20 08:40:53;;;;;;;45.83;22.23;;;-2.30;99.90;;;;;;5000376;28;20081;-74
2024/01/20 08:43:23;;;;;;;40.22;20.63;;;-2.20;99.90;;;;;;5001194;28;20057;-74
2024/01/20 08:46:00;;;;;;;40.67;22.25;;;-2.20;99.90;;;;;;5000288;28;20042;-74
2024/01/20 08:48:29;;;;;;;41.28;21.38;;;-2.10;99.90;;;;;;5000738;28;20038;-74
2024/01/20 08:51:00;;;;;;;41.60;21.52;;;-2.00;99.90;;;;;;4984533;28;20102;-75
2024/01/20 08:53:50;;;;;;;38.47;21.10;;;-1.90;99.90;;;;;;4999266;28;20206;-80
2024/01/20 08:56:15;;;;;;;40.00;21.30;;;-1.90;99.90;;;;;;4955380;28;20034;-76
2024/01/20 08:58:53;;;;;;;38.30;20.83;;;-1.80;99.90;;;;;;5000423;28;20029;-76
2024/01/20 09:01:29;;;;;;;40.40;21.52;;;-1.80;99.90;;;;;;4997859;28;20041;-74
2024/01/20 09:04:03;;;;;;;38.35;19.80;;;-1.70;99.90;;;;;;5001284;28;20026;-76
2024/01/20 09:06:48;;;;;;;33.28;17.55;;;-1.70;99.90;;;;;;5000701;28;20105;-74
2024/01/20 09:09:18;;;;;;;32.50;18.85;;;-1.80;99.90;;;;;;4983391;28;20050;-76
2024/01/20 09:11:47;;;;;;;32.05;18.92;;;-1.80;99.90;;;;;;5002807;28;20037;-75
2024/01/20 09:14:21;;;;;;;35.50;18.42;;;-1.90;99.90;;;;;;5005663;28;20022;-75
2024/01/20 09:16:53;;;;;;;36.08;19.52;;;-1.70;99.90;;;;;;5004447;28;20033;-74
2024/01/20 09:19:27;;;;;;;33.33;19.00;;;-1.60;99.90;;;;;;5005136;28;20094;-75
2024/01/20 09:22:00;;;;;;;39.30;20.42;;;-1.50;99.90;;;;;;4977150;28;20030;-75
2024/01/20 09:24:33;;;;;;;37.72;20.80;;;-1.30;99.90;;;;;;5005472;28;20057;-76
2024/01/20 09:27:02;;;;;;;35.88;20.05;;;-1.30;99.90;;;;;;5005976;28;20033;-74
2024/01/20 09:29:50;;;;;;;32.30;19.08;;;-1.10;99.90;;;;;;5002022;28;20026;-76
2024/01/20 09:32:16;;;;;;;39.30;20.20;;;-1.00;99.90;;;;;;5004186;28;20097;-75
2024/01/20 09:34:51;;;;;;;36.75;20.00;;;-1.10;99.90;;;;;;5019967;28;20037;-75
2024/01/20 09:40:35;;;;;;;33.50;17.15;;;-1.40;99.90;;;;;;5010568;28;20073;-74
2024/01/20 09:43:05;;;;;;;32.25;17.88;;;-1.60;99.90;;;;;;5013599;28;20074;-73
2024/01/20 09:45:49;;;;;;;32.72;18.05;;;-1.70;99.90;;;;;;5003585;28;20057;-74
2024/01/20 09:48:15;;;;;;;32.05;17.48;;;-1.60;99.90;;;;;;5022218;28;20104;-74
2024/01/20 09:50:44;;;;;;;33.03;17.73;;;-1.40;99.90;;;;;;5023910;28;20084;-79
2024/01/20 09:53:31;;;;;;;30.75;18.15;;;-1.40;99.90;;;;;;5015376;28;20026;-73
2024/01/20 09:56:03;;;;;;;32.38;17.67;;;-1.30;99.90;;;;;;5004102;28;20026;-75
2024/01/20 09:58:35;;;;;;;31.50;16.92;;;-1.20;99.90;;;;;;5022496;28;20071;-74
2024/01/20 10:01:04;;;;;;;28.33;16.30;;;-1.10;99.90;;;;;;5002121;28;20041;-75
2024/01/20 10:03:34;;;;;;;34.50;17.85;;;-1.20;99.90;;;;;;5006286;28;20252;-73
2024/01/20 10:06:00;;;;;;;36.42;19.85;;;-1.10;99.90;;;;;;5023383;28;20044;-76
2024/01/20 10:08:32;;;;;;;38.05;19.65;;;-1.00;99.90;;;;;;5024316;28;20029;-75
2024/01/20 10:11:05;;;;;;;35.13;18.05;;;-0.90;99.90;;;;;;5003476;28;20045;-75
2024/01/20 10:13:31;;;;;;;33.22;18.15;;;-0.80;99.90;;;;;;5019424;28;20046;-74
2024/01/20 10:15:57;;;;;;;34.88;19.42;;;-0.80;99.90;;;;;;4974503;28;20030;-74
2024/01/20 10:18:35;;;;;;;38.38;20.30;;;-0.90;99.90;;;;;;4986736;28;20341;-75
2024/01/20 10:21:05;;;;;;;;;;;-1.00;99.90;;;;;;4987899;28;20038;-74
2024/01/20 10:23:37;;;;;;;39.95;20.23;;;-1.20;99.90;;;;;;4967032;28;19918;-76
2024/01/20 10:26:19;;;;;;;40.00;21.38;;;-1.30;99.90;;;;;;4985218;28;20030;-74
2024/01/20 10:28:45;;;;;;;38.45;19.98;;;-1.30;99.90;;;;;;4984765;28;20038;-75
2024/01/20 10:31:13;;;;;;;38.17;20.55;;;-1.30;99.90;;;;;;4956294;28;20022;-75
2024/01/20 10:33:52;;;;;;;;;;;;;;;;;;;;;
2024/01/20 10:36:25;;;;;;;40.20;20.77;;;-1.10;99.90;;;;;;4986842;28;20073;-76
2024/01/20 10:39:02;;;;;;;38.00;20.33;;;-1.00;99.90;;;;;;5004253;28;20038;-75
2024/01/20 10:41:46;;;;;;;39.38;19.80;;;-0.90;99.90;;;;;;5004509;28;20224;-76
2024/01/20 10:44:43;;;;;;;38.33;20.25;;;-0.90;99.90;;;;;;5004471;28;20058;-73
2024/01/20 10:47:36;;;;;;;38.08;19.83;;;-1.00;99.90;;;;;;5003065;28;20036;-76
2024/01/20 10:50:30;;;;;;;37.60;20.17;;;-1.00;99.90;;;;;;4958849;28;20105;-75
2024/01/20 10:52:55;;;;;;;39.45;20.48;;;-0.80;99.90;;;;;;5003919;28;20045;-75
2024/01/20 10:55:31;;;;;;;37.55;21.88;;;-0.70;99.90;;;;;;4986712;28;20057;-76
2024/01/20 10:58:03;;;;;;;35.38;19.90;;;-0.60;99.90;;;;;;4986518;28;20260;-76
2024/01/20 11:00:45;;;;;;;36.70;21.00;;;-0.50;99.90;;;;;;4971189;28;20072;-76
2024/01/20 11:03:11;;;;;;;35.05;19.75;;;-0.20;99.90;;;;;;5004139;28;20030;-75
2024/01/20 11:06:02;;;;;;;34.92;19.40;;;0.10;99.90;;;;;;5003342;28;20058;-75
2024/01/20 11:08:34;;;;;;;33.85;20.15;;;0.20;99.50;;;;;;5002949;28;20360;-76
2024/01/20 11:11:00;;;;;;;32.58;18.48;;;0.50;98.00;;;;;;4986137;28;20033;-75
2024/01/20 11:13:28;;;;;;;33.80;19.58;;;0.70;98.20;;;;;;4985990;28;20037;-76
2024/01/20 11:16:09;;;;;;;32.28;19.52;;;1.10;97.60;;;;;;5003417;28;20034;-76
2024/01/20 11:19:08;;;;;;;33.67;19.95;;;1.50;96.50;;;;;;4985336;28;20049;-75
2024/01/20 11:21:37;;;;;;;32.08;18.52;;;1.70;96.30;;;;;;4995400;28;20081;-75
2024/01/20 11:24:09;;;;;;;30.98;18.52;;;2.20;95.10;;;;;;5002275;28;20098;-76
2024/01/20 11:27:15;;;;;;;30.48;19.48;;;2.60;94.40;;;;;;4962426;28;20026;-77
2024/01/20 11:30:35;;;;;;;28.30;19.38;;;2.50;93.80;;;;;;4967970;28;20332;-77
2024/01/20 11:33:11;;;;;;;29.95;19.83;;;3.10;92.80;;;;;;4920596;29;20126;-76
2024/01/20 11:36:34;;;;;;;31.95;20.45;;;3.50;92.30;;;;;;4914034;29;20103;-76
2024/01/20 11:39:00;;;;;;;;;;;4.00;91.50;;;;;;4900338;29;20394;-76
2024/01/20 11:42:20;;;;;;;30.52;19.73;;;4.40;90.40;;;;;;4924439;29;19930;-75
2024/01/20 11:44:53;;;;;;;32.13;20.45;;;5.20;88.50;;;;;;4900626;29;20131;-76
2024/01/20 11:47:59;;;;;;;28.95;19.38;;;5.80;86.80;;;;;;4924702;29;20039;-76
2024/01/20 11:50:55;;;;;;;33.65;19.55;;;6.10;85.70;;;;;;4850250;29;20202;-75
2024/01/20 11:53:59;;;;;;;28.90;19.48;;;6.70;82.60;;;;;;4861156;29;20111;-78
2024/01/20 11:56:28;;;;;;;30.52;20.13;;;6.50;80.70;;;;;;4868252;29;20109;-76
2024/01/20 11:58:53;;;;;;;28.05;19.67;;;6.60;82.30;;;;;;4850822;29;20132;-74
2024/01/20 12:01:28;;;;;;;29.85;20.20;;;7.10;81.00;;;;;;4852422;29;20021;-75
2024/01/20 12:04:20;;;;;;;32.45;20.30;;;7.20;78.90;;;;;;4868036;29;20049;-76
2024/01/20 12:06:58;;;;;;;27.35;19.23;;;7.00;80.20;;;;;;4860893;29;20485;-78
2024/01/20 12:09:31;;;;;;;28.20;19.48;;;7.30;79.20;;;;;;4864953;29;20061;-76
2024/01/20 12:11:57;;;;;;;31.92;20.27;;;7.10;78.80;;;;;;4886157;29;20077;-75
2024/01/20 12:14:29;;;;;;;31.65;19.83;;;7.20;79.20;;;;;;4886249;29;20104;-77
2024/01/20 12:17:06;;;;;;;29.92;20.50;;;7.40;78.30;;;;;;4886275;29;20033;-76
2024/01/20 12:19:58;;;;;;;29.17;19.73;;;7.20;78.30;;;;;;4885131;29;20037;-76
2024/01/20 12:22:41;;;;;;;26.63;19.73;;;7.00;79.30;;;;;;4886333;29;20041;-76
2024/01/20 12:28:02;;;;;;;30.55;19.63;;;7.40;77.90;;;;;;4923319;29;20088;-76
2024/01/20 12:33:33;;;;;;;32.03;20.40;;;8.00;76.30;;;;;;4915576;29;20297;-76
2024/01/20 12:36:13;;;;;;;27.63;20.15;;;8.40;75.30;;;;;;4932079;29;20351;-76
2024/01/20 12:38:39;;;;;;;30.05;19.50;;;8.80;74.80;;;;;;4932569;28;20051;-77
2024/01/20 12:41:12;;;;;;;26.48;19.17;;;8.70;73.20;;;;;;4979777;28;20035;-74
2024/01/20 12:43:48;;;;;;;29.50;19.58;;;8.90;73.40;;;;;;4982497;28;20281;-76
2024/01/20 12:46:20;;;;;;;30.42;19.42;;;9.10;74.00;;;;;;4969111;28;20035;-76
2024/01/20 12:48:55;;;;;;;26.77;18.90;;;9.50;72.50;;;;;;4986084;28;20325;-76
2024/01/20 12:51:21;;;;;;;27.98;19.38;;;10.10;71.90;;;;;;4999975;28;20093;-74
2024/01/20 12:53:59;;;;;;;26.30;18.77;;;9.70;70.10;;;;;;4989886;28;20038;-74
2024/01/20 12:56:27;;;;;;;29.00;19.75;;;8.90;72.20;;;;;;5006240;28;20050;-75
2024/01/20 12:58:56;;;;;;;;;;;9.10;71.90;;;;;;4988677;28;20294;-76
2024/01/20 13:01:28;;;;;;;27.75;18.48;;;8.30;73.80;;;;;;4989593;28;19902;-79
2024/01/20 13:04:19;;;;;;;31.45;19.50;;;8.50;74.10;;;;;;5005486;28;20034;-77
2024/01/20 13:06:48;;;;;;;26.25;17.95;;;8.70;73.50;;;;;;4995162;28;20240;-76
2024/01/20 13:09:13;;;;;;;31.65;19.15;;;8.60;73.50;;;;;;5004575;28;20040;-78
2024/01/20 13:11:54;;;;;;;30.38;20.08;;;8.60;74.00;;;;;;5005268;28;20232;-75
2024/01/20 13:14:23;;;;;;;28.48;18.90;;;8.20;73.70;;;;;;5004389;28;20030;-76
2024/01/20 13:16:51;;;;;;;28.80;18.85;;;7.60;76.60;;;;;;5004995;28;20038;-76
2024/01/20 13:19:20;;;;;;;;;;;7.10;76.70;;;;;;5005913;28;20089;-76
2024/01/20 13:21:50;;;;;;;28.52;18.65;;;7.40;77.40;;;;;;4987670;28;19969;-76
2024/01/20 13:24:16;;;;;;;33.15;19.70;;;7.00;77.60;;;;;;4987937;28;20028;-75